createdAt,value
2019-03-30T00:00:02.396Z,32.13
2019-03-30T00:02:30.855Z,33.20
2019-03-30T00:04:59.606Z,37.15
2019-03-30T00:07:28.341Z,27.05
2019-03-30T00:09:58.790Z,28.95
2019-03-30T00:12:27.492Z,29.45
2019-03-30T00:14:56.318Z,33.48
2019-03-30T00:17:25.062Z,29.15
2019-03-30T00:19:53.629Z,27.30
2019-03-30T00:22:22.357Z,26.27
2019-03-30T00:24:50.817Z,27.02
2019-03-30T00:27:19.275Z,25.00
2019-03-30T00:29:50.519Z,26.12
2019-03-30T00:32:19.319Z,27.25
2019-03-30T00:34:48.108Z,29.67
2019-03-30T00:37:16.877Z,27.85
2019-03-30T00:39:45.661Z,30.20
2019-03-30T00:42:15.761Z,26.73
2019-03-30T00:44:46.428Z,30.52
2019-03-30T00:47:14.873Z,23.62
2019-03-30T00:49:49.837Z,22.42
2019-03-30T00:52:13.815Z,22.27
2019-03-30T00:54:42.586Z,21.90
2019-03-30T00:57:11.115Z,21.20
2019-03-30T00:59:39.689Z,25.40
2019-03-30T01:02:08.448Z,19.15
2019-03-30T01:04:37.218Z,23.32
2019-03-30T01:07:05.684Z,20.82
2019-03-30T01:09:34.487Z,19.98
2019-03-30T01:12:02.968Z,21.65
2019-03-30T01:14:34.108Z,25.35
2019-03-30T01:17:02.998Z,18.77
2019-03-30T01:19:31.474Z,20.17
2019-03-30T01:22:00.033Z,27.50
2019-03-30T01:24:28.568Z,21.70
2019-03-30T01:26:57.034Z,24.65
2019-03-30T01:29:25.920Z,25.77
2019-03-30T01:31:55.424Z,23.22
2019-03-30T01:34:24.213Z,22.93
2019-03-30T01:36:52.692Z,24.92
2019-03-30T01:39:22.698Z,24.15
2019-03-30T01:41:51.136Z,22.22
2019-03-30T01:44:19.986Z,20.05
2019-03-30T01:46:48.736Z,21.12
2019-03-30T01:49:17.194Z,23.25
2019-03-30T01:51:46.038Z,18.85
2019-03-30T01:54:14.558Z,20.95
2019-03-30T01:56:43.256Z,23.90
2019-03-30T01:59:12.109Z,19.32
2019-03-30T02:01:40.668Z,19.98
2019-03-30T02:04:09.177Z,16.87
2019-03-30T02:06:37.668Z,19.67
2019-03-30T02:09:06.492Z,20.60
2019-03-30T02:11:35.235Z,19.90
2019-03-30T02:14:03.859Z,18.77
2019-03-30T02:16:32.623Z,20.52
2019-03-30T02:19:01.479Z,16.97
2019-03-30T02:21:30.066Z,15.23
2019-03-30T02:24:00.098Z,17.65
2019-03-30T02:26:28.973Z,16.97
2019-03-30T02:28:57.760Z,18.20
2019-03-30T02:31:26.485Z,14.38
2019-03-30T02:33:54.974Z,19.30
2019-03-30T02:36:23.487Z,18.55
2019-03-30T02:38:53.613Z,17.48
2019-03-30T02:41:22.421Z,17.67
2019-03-30T02:43:52.243Z,18.40
2019-03-30T02:46:20.989Z,13.50
2019-03-30T02:48:49.794Z,17.98
2019-03-30T02:51:18.666Z,14.23
2019-03-30T02:53:47.185Z,14.83
2019-03-30T02:56:16.045Z,14.63
2019-03-30T02:58:44.570Z,15.43
2019-03-30T03:01:14.933Z,14.20
2019-03-30T03:03:43.485Z,14.85
2019-03-30T03:06:12.310Z,15.35
2019-03-30T03:08:41.199Z,14.60
2019-03-30T03:11:09.737Z,14.93
2019-03-30T03:13:38.190Z,15.85
2019-03-30T03:16:06.649Z,15.88
2019-03-30T03:18:35.136Z,19.15
2019-03-30T03:21:07.923Z,16.07
2019-03-30T03:23:34.213Z,14.87
2019-03-30T03:26:03.015Z,13.70
2019-03-30T03:28:31.538Z,12.45
2019-03-30T03:31:00.277Z,13.08
2019-03-30T03:33:29.060Z,11.97
2019-03-30T03:35:57.526Z,13.15
2019-03-30T03:38:26.448Z,16.60
2019-03-30T03:40:55.248Z,13.58
2019-03-30T03:43:24.106Z,15.03
2019-03-30T03:45:52.695Z,10.88
2019-03-30T03:48:21.144Z,12.23
2019-03-30T03:50:52.928Z,14.33
2019-03-30T03:53:21.668Z,14.68
2019-03-30T03:55:50.695Z,12.33
2019-03-30T03:58:20.762Z,14.03
2019-03-30T04:00:50.998Z,12.28
2019-03-30T04:03:20.147Z,14.78
2019-03-30T04:05:49.150Z,12.47
2019-03-30T04:08:17.856Z,12.98
2019-03-30T04:10:48.350Z,14.55
2019-03-30T04:13:17.342Z,12.98
2019-03-30T04:15:45.891Z,10.58
2019-03-30T04:18:14.429Z,11.40
2019-03-30T04:20:42.954Z,12.15
2019-03-30T04:23:12.252Z,9.85
2019-03-30T04:25:40.698Z,11.38
2019-03-30T04:28:09.144Z,9.35
2019-03-30T04:30:37.632Z,11.60
2019-03-30T04:33:06.510Z,11.70
2019-03-30T04:35:34.954Z,15.05
2019-03-30T04:38:04.012Z,11.35
2019-03-30T04:40:32.534Z,11.78
2019-03-30T04:43:02.706Z,12.65
2019-03-30T04:45:31.465Z,15.23
2019-03-30T04:48:00.242Z,13.43
2019-03-30T04:50:29.078Z,10.72
2019-03-30T04:52:57.917Z,11.15
2019-03-30T04:55:26.618Z,10.72
2019-03-30T04:57:57.894Z,9.10
2019-03-30T05:00:25.814Z,10.25
2019-03-30T05:02:54.662Z,10.58
2019-03-30T05:05:23.124Z,8.30
2019-03-30T05:07:51.880Z,11.70
2019-03-30T05:10:20.691Z,11.35
2019-03-30T05:12:49.564Z,9.10
2019-03-30T05:15:18.434Z,9.83
2019-03-30T05:17:48.152Z,12.37
2019-03-30T05:20:18.076Z,9.10
2019-03-30T05:22:51.204Z,11.22
2019-03-30T05:25:18.232Z,10.93
2019-03-30T05:27:46.710Z,10.43
2019-03-30T05:30:15.291Z,11.08
2019-03-30T05:32:44.076Z,11.68
2019-03-30T05:35:13.688Z,8.95
2019-03-30T05:37:42.197Z,11.38
2019-03-30T05:40:11.264Z,8.18
2019-03-30T05:42:39.804Z,8.00
2019-03-30T05:45:08.851Z,10.43
2019-03-30T05:47:37.556Z,11.18
2019-03-30T05:50:07.409Z,9.80
2019-03-30T05:52:36.193Z,15.48
2019-03-30T05:55:05.823Z,14.47
2019-03-30T05:57:37.014Z,12.20
2019-03-30T06:00:11.930Z,13.22
2019-03-30T06:02:40.693Z,11.73
2019-03-30T06:05:09.307Z,12.80
2019-03-30T06:07:38.020Z,14.75
2019-03-30T06:10:09.016Z,14.75
2019-03-30T06:12:37.550Z,14.68
2019-03-30T06:15:09.876Z,15.98
2019-03-30T06:17:40.571Z,11.90
2019-03-30T06:20:09.959Z,15.58
2019-03-30T06:22:40.599Z,10.48
2019-03-30T06:25:09.077Z,12.50
2019-03-30T06:27:37.640Z,13.28
2019-03-30T06:30:21.072Z,10.48
2019-03-30T06:32:49.538Z,11.88
2019-03-30T06:35:18.469Z,11.50
2019-03-30T06:37:47.221Z,12.18
2019-03-30T06:40:16.465Z,9.98
2019-03-30T06:42:45.042Z,12.30
2019-03-30T06:45:13.740Z,12.25
2019-03-30T06:47:42.271Z,14.07
2019-03-30T06:50:13.719Z,16.45
2019-03-30T06:52:56.402Z,13.30
2019-03-30T06:55:12.774Z,12.98
2019-03-30T06:57:41.295Z,17.17
2019-03-30T07:00:10.333Z,14.30
2019-03-30T07:02:41.931Z,11.55
2019-03-30T07:05:10.795Z,11.78
2019-03-30T07:07:40.141Z,10.35
2019-03-30T07:10:09.335Z,14.13
2019-03-30T07:12:42.146Z,11.83
2019-03-30T07:15:11.351Z,15.55
2019-03-30T07:17:47.321Z,12.33
2019-03-30T07:20:31.221Z,13.65
2019-03-30T07:23:11.325Z,11.75
2019-03-30T07:25:30.545Z,12.58
2019-03-30T07:27:59.097Z,12.70
2019-03-30T07:30:27.937Z,13.60
2019-03-30T07:32:56.484Z,12.55
2019-03-30T07:35:27.454Z,13.13
2019-03-30T07:37:55.901Z,14.68
2019-03-30T07:40:24.430Z,13.15
2019-03-30T07:42:53.170Z,12.68
2019-03-30T07:45:22.061Z,13.38
2019-03-30T07:47:50.541Z,10.43
2019-03-30T07:50:19.657Z,12.58
2019-03-30T07:52:48.105Z,12.00
2019-03-30T07:55:16.559Z,11.35
2019-03-30T07:57:45.297Z,9.73
2019-03-30T08:00:15.317Z,11.25
2019-03-30T08:02:44.103Z,9.88
2019-03-30T08:05:13.093Z,13.95
2019-03-30T08:07:41.613Z,12.55
2019-03-30T08:10:12.597Z,14.25
2019-03-30T08:12:41.249Z,12.30
2019-03-30T08:15:09.911Z,12.75
2019-03-30T08:17:38.431Z,10.70
2019-03-30T08:20:07.979Z,13.10
2019-03-30T08:22:37.439Z,13.18
2019-03-30T08:25:07.168Z,13.80
2019-03-30T08:27:35.628Z,12.25
2019-03-30T08:30:05.204Z,12.60
2019-03-30T08:32:34.143Z,13.20
2019-03-30T08:35:02.932Z,10.55
2019-03-30T08:37:31.666Z,13.55
2019-03-30T08:40:00.398Z,13.65
2019-03-30T08:42:29.292Z,12.75
2019-03-30T08:44:58.281Z,12.73
2019-03-30T08:47:27.050Z,17.15
2019-03-30T08:49:55.554Z,12.43
2019-03-30T08:52:24.272Z,13.60
2019-03-30T08:54:53.108Z,11.35
2019-03-30T08:57:21.626Z,12.95
2019-03-30T08:59:50.072Z,13.45
2019-03-30T09:02:18.563Z,12.28
2019-03-30T09:04:48.151Z,10.32
2019-03-30T09:07:16.762Z,11.50
2019-03-30T09:09:45.537Z,14.10
2019-03-30T09:12:14.440Z,13.13
2019-03-30T09:14:42.961Z,15.83
2019-03-30T09:17:12.204Z,11.55
2019-03-30T09:19:40.990Z,13.58
2019-03-30T09:22:09.436Z,13.45
2019-03-30T09:24:38.502Z,11.73
2019-03-30T09:27:07.050Z,13.60
2019-03-30T09:29:35.562Z,14.07
2019-03-30T09:32:14.142Z,11.22
2019-03-30T09:34:36.531Z,15.18
2019-03-30T09:37:06.988Z,13.32
2019-03-30T09:39:35.734Z,13.83
2019-03-30T09:42:04.441Z,12.85
2019-03-30T09:44:32.898Z,10.78
2019-03-30T09:47:01.381Z,13.30
2019-03-30T09:49:30.152Z,13.22
2019-03-30T09:51:59.017Z,10.35
2019-03-30T09:54:28.634Z,13.68
2019-03-30T09:56:59.775Z,14.90
2019-03-30T09:59:28.566Z,15.40
2019-03-30T10:01:57.056Z,13.58
2019-03-30T10:04:25.820Z,12.50
2019-03-30T10:06:54.279Z,16.15
2019-03-30T10:09:23.094Z,13.43
2019-03-30T10:11:53.575Z,12.25
2019-03-30T10:14:22.408Z,11.12
2019-03-30T10:16:51.190Z,12.68
2019-03-30T10:19:19.742Z,12.15
2019-03-30T10:21:48.198Z,13.62
2019-03-30T10:24:16.955Z,11.48
2019-03-30T10:26:45.504Z,13.05
2019-03-30T10:29:13.962Z,12.98
2019-03-30T10:31:42.804Z,12.20
2019-03-30T10:34:11.362Z,14.18
2019-03-30T10:36:40.072Z,13.88
2019-03-30T10:39:08.884Z,15.15
2019-03-30T10:41:37.616Z,14.80
2019-03-30T10:44:06.068Z,14.85
2019-03-30T10:46:34.864Z,11.50
2019-03-30T10:49:03.324Z,12.23
2019-03-30T10:51:32.204Z,13.75
2019-03-30T10:54:00.654Z,14.55
2019-03-30T10:56:29.447Z,13.35
2019-03-30T10:58:59.552Z,11.50
2019-03-30T11:01:28.023Z,14.00
2019-03-30T11:03:56.833Z,12.50
2019-03-30T11:06:25.587Z,16.35
2019-03-30T11:08:54.400Z,15.18
2019-03-30T11:11:23.164Z,11.85
2019-03-30T11:13:51.635Z,15.35
2019-03-30T11:16:21.160Z,17.00
2019-03-30T11:18:49.941Z,14.98
2019-03-30T11:21:18.860Z,13.08
2019-03-30T11:23:47.636Z,15.55
2019-03-30T11:26:16.102Z,14.73
2019-03-30T11:28:44.637Z,12.95
2019-03-30T11:31:14.914Z,13.53
2019-03-30T11:33:43.637Z,13.00
2019-03-30T11:36:12.145Z,12.78
2019-03-30T11:38:40.644Z,15.65
2019-03-30T11:41:09.414Z,11.80
2019-03-30T11:43:37.964Z,12.68
2019-03-30T11:46:06.950Z,13.70
2019-03-30T11:48:37.385Z,12.85
2019-03-30T11:51:07.144Z,10.93
2019-03-30T11:53:37.142Z,11.43
2019-03-30T11:56:05.790Z,12.45
2019-03-30T11:58:34.249Z,10.63
2019-03-30T12:01:07.891Z,9.80
2019-03-30T12:03:36.746Z,11.63
2019-03-30T12:06:05.850Z,11.33
2019-03-30T12:08:34.802Z,12.23
2019-03-30T12:11:03.724Z,11.38
2019-03-30T12:13:32.215Z,13.83
2019-03-30T12:16:00.755Z,9.13
2019-03-30T12:18:29.229Z,8.28
2019-03-30T12:20:57.774Z,8.65
2019-03-30T12:23:26.507Z,8.93
2019-03-30T12:25:55.319Z,9.00
2019-03-30T12:28:24.140Z,9.80
2019-03-30T12:30:53.023Z,10.60
2019-03-30T12:33:22.561Z,9.98
2019-03-30T12:35:51.655Z,8.55
2019-03-30T12:38:20.108Z,12.25
2019-03-30T12:40:48.929Z,9.08
2019-03-30T12:43:17.394Z,100.53
2019-03-30T12:45:45.980Z,18.70
2019-03-30T12:48:14.706Z,9.00
2019-03-30T12:50:43.258Z,9.43
2019-03-30T12:53:12.071Z,14.03
2019-03-30T12:55:49.080Z,13.88
2019-03-30T12:58:12.477Z,12.78
2019-03-30T13:00:40.998Z,10.90
2019-03-30T13:03:09.821Z,11.53
2019-03-30T13:05:38.275Z,14.10
2019-03-30T13:08:06.739Z,17.60
2019-03-30T13:10:35.637Z,15.25
2019-03-30T13:13:04.679Z,16.75
2019-03-30T13:15:33.132Z,17.73
2019-03-30T13:18:01.631Z,14.65
2019-03-30T13:20:30.174Z,12.93
2019-03-30T13:22:58.680Z,12.60
2019-03-30T13:25:30.000Z,18.00
2019-03-30T13:27:58.868Z,16.30
2019-03-30T13:30:27.322Z,12.47
2019-03-30T13:32:55.809Z,12.35
2019-03-30T13:35:24.636Z,12.78
2019-03-30T13:37:53.256Z,13.30
2019-03-30T13:40:21.973Z,17.25
2019-03-30T13:42:50.418Z,16.35
2019-03-30T13:45:21.093Z,14.07
2019-03-30T13:47:49.641Z,13.43
2019-03-30T13:50:18.157Z,10.63
2019-03-30T13:52:46.609Z,13.95
2019-03-30T13:55:16.970Z,10.08
2019-03-30T13:57:45.496Z,13.08
2019-03-30T14:00:14.441Z,13.88
2019-03-30T14:02:44.192Z,12.85
2019-03-30T14:05:13.975Z,11.43
2019-03-30T14:07:44.163Z,10.58
2019-03-30T14:10:13.680Z,9.65
2019-03-30T14:12:42.224Z,12.10
2019-03-30T14:15:10.838Z,12.93
2019-03-30T14:17:39.302Z,16.82
2019-03-30T14:20:08.595Z,12.93
2019-03-30T14:22:37.485Z,13.62
2019-03-30T14:25:09.024Z,13.48
2019-03-30T14:27:38.962Z,13.85
2019-03-30T14:30:10.250Z,17.35
2019-03-30T14:32:42.232Z,13.08
2019-03-30T14:35:10.842Z,17.10
2019-03-30T14:37:39.294Z,11.57
2019-03-30T14:40:08.622Z,10.15
2019-03-30T14:42:37.446Z,10.10
2019-03-30T14:45:07.977Z,11.03
2019-03-30T14:47:36.805Z,8.30
2019-03-30T14:50:07.990Z,13.15
2019-03-30T14:52:37.085Z,8.63
2019-03-30T14:55:08.331Z,10.48
2019-03-30T14:57:36.792Z,10.10
2019-03-30T15:00:08.767Z,8.93
2019-03-30T15:02:37.255Z,10.32
2019-03-30T15:05:09.397Z,9.85
2019-03-30T15:07:38.140Z,14.10
2019-03-30T15:10:09.905Z,9.30
2019-03-30T15:12:40.319Z,9.45
2019-03-30T15:15:13.624Z,10.00
2019-03-30T15:17:43.365Z,10.80
2019-03-30T15:20:12.058Z,8.55
2019-03-30T15:22:40.535Z,10.68
2019-03-30T15:25:10.288Z,10.03
2019-03-30T15:27:39.012Z,11.48
2019-03-30T15:30:10.212Z,11.73
2019-03-30T15:32:39.116Z,12.95
2019-03-30T15:35:08.313Z,13.78
2019-03-30T15:37:37.184Z,9.78
2019-03-30T15:40:06.662Z,10.58
2019-03-30T15:42:39.873Z,11.97
2019-03-30T15:45:09.369Z,10.13
2019-03-30T15:47:38.271Z,14.03
2019-03-30T15:50:08.798Z,9.98
2019-03-30T15:52:37.556Z,11.45
2019-03-30T15:55:09.675Z,14.28
2019-03-30T15:57:38.405Z,10.50
2019-03-30T16:00:10.185Z,10.68
2019-03-30T16:02:40.404Z,11.70
2019-03-30T16:05:09.357Z,11.25
2019-03-30T16:07:38.181Z,14.05
2019-03-30T16:10:07.481Z,11.28
2019-03-30T16:12:35.953Z,11.70
2019-03-30T16:15:05.845Z,12.43
2019-03-30T16:17:35.139Z,11.70
2019-03-30T16:20:07.536Z,12.00
2019-03-30T16:22:36.426Z,9.43
2019-03-30T16:25:07.183Z,10.72
2019-03-30T16:27:39.020Z,11.63
2019-03-30T16:30:08.253Z,11.25
2019-03-30T16:32:36.814Z,11.35
2019-03-30T16:35:05.848Z,12.88
2019-03-30T16:37:34.410Z,10.55
2019-03-30T16:40:05.687Z,10.13
2019-03-30T16:42:34.405Z,10.93
2019-03-30T16:45:02.943Z,11.38
2019-03-30T16:47:31.481Z,15.55
2019-03-30T16:50:00.401Z,12.30
2019-03-30T16:52:30.818Z,12.90
2019-03-30T16:54:59.569Z,12.07
2019-03-30T16:57:42.151Z,16.30
2019-03-30T16:59:59.514Z,11.90
2019-03-30T17:02:28.270Z,12.80
2019-03-30T17:04:57.274Z,13.48
2019-03-30T17:07:26.086Z,11.63
2019-03-30T17:09:54.543Z,13.18
2019-03-30T17:12:23.274Z,16.07
2019-03-30T17:14:52.112Z,15.68
2019-03-30T17:17:20.566Z,13.18
2019-03-30T17:19:49.035Z,12.33
2019-03-30T17:22:17.574Z,13.53
2019-03-30T17:24:46.970Z,9.83
2019-03-30T17:27:15.498Z,12.58
2019-03-30T17:29:44.329Z,14.50
2019-03-30T17:32:12.912Z,15.32
2019-03-30T17:34:41.438Z,11.90
2019-03-30T17:37:09.998Z,14.50
2019-03-30T17:39:38.870Z,17.45
2019-03-30T17:42:07.718Z,15.35
2019-03-30T17:44:36.540Z,15.98
2019-03-30T17:47:05.063Z,15.15
2019-03-30T17:49:33.792Z,12.98
2019-03-30T17:52:03.903Z,14.03
2019-03-30T17:54:32.458Z,17.42
2019-03-30T17:57:00.925Z,19.23
2019-03-30T17:59:29.684Z,14.28
2019-03-30T18:01:58.568Z,19.32
2019-03-30T18:04:27.363Z,21.15
2019-03-30T18:06:55.989Z,17.55
2019-03-30T18:09:24.889Z,22.00
2019-03-30T18:11:53.336Z,17.75
2019-03-30T18:14:22.088Z,22.85
2019-03-30T18:16:50.550Z,18.40
2019-03-30T18:19:19.353Z,18.30
2019-03-30T18:21:50.985Z,20.85
2019-03-30T18:24:19.927Z,22.70
2019-03-30T18:26:50.883Z,25.82
2019-03-30T18:29:19.654Z,34.55
2019-03-30T18:31:48.315Z,45.08
2019-03-30T18:34:16.804Z,30.48
2019-03-30T18:36:47.032Z,34.27
2019-03-30T18:39:18.759Z,27.85
2019-03-30T18:41:47.894Z,33.40
2019-03-30T18:44:17.543Z,35.28
2019-03-30T18:46:46.481Z,41.18
2019-03-30T18:49:14.969Z,43.85
2019-03-30T18:51:49.532Z,35.33
2019-03-30T18:54:19.358Z,40.43
2019-03-30T18:56:48.162Z,36.80
2019-03-30T18:59:16.906Z,35.33
2019-03-30T19:01:45.377Z,27.90
2019-03-30T19:04:19.328Z,29.18
2019-03-30T19:06:47.779Z,28.50
2019-03-30T19:09:18.036Z,31.82
2019-03-30T19:11:52.359Z,28.55
2019-03-30T19:14:21.142Z,28.70
2019-03-30T19:16:49.936Z,28.02
2019-03-30T19:19:18.752Z,36.80
2019-03-30T19:21:47.196Z,36.75
2019-03-30T19:24:15.860Z,27.93
2019-03-30T19:26:44.441Z,28.40
2019-03-30T19:29:13.251Z,27.15
2019-03-30T19:31:41.698Z,40.83
2019-03-30T19:34:10.169Z,34.43
2019-03-30T19:36:38.940Z,40.80
2019-03-30T19:39:12.044Z,42.67
2019-03-30T19:41:40.771Z,35.65
2019-03-30T19:44:10.343Z,44.80
2019-03-30T19:46:38.809Z,39.83
2019-03-30T19:49:07.309Z,40.55
2019-03-30T19:51:36.319Z,43.55
2019-03-30T19:54:05.245Z,42.78
2019-03-30T19:56:34.028Z,36.93
2019-03-30T19:59:10.530Z,42.98
2019-03-30T20:01:32.860Z,39.05
2019-03-30T20:04:01.809Z,45.60
2019-03-30T20:06:30.470Z,45.25
2019-03-30T20:08:59.310Z,48.78
2019-03-30T20:11:29.374Z,48.65
2019-03-30T20:13:57.830Z,54.10
2019-03-30T20:16:26.688Z,52.40
2019-03-30T20:19:10.875Z,39.20
2019-03-30T20:21:25.535Z,44.05
2019-03-30T20:23:54.917Z,54.55
2019-03-30T20:26:23.766Z,48.13
2019-03-30T20:28:52.218Z,56.95
2019-03-30T20:31:21.029Z,51.48
2019-03-30T20:33:49.765Z,52.80
2019-03-30T20:36:18.219Z,48.33
2019-03-30T20:38:46.764Z,50.05
2019-03-30T20:41:15.571Z,61.35
2019-03-30T20:43:45.919Z,49.35
2019-03-30T20:46:15.787Z,57.45
2019-03-30T20:48:44.577Z,52.55
2019-03-30T20:51:13.344Z,56.45
2019-03-30T20:53:41.904Z,47.85
2019-03-30T20:56:10.658Z,47.33
2019-03-30T20:58:39.449Z,63.68
2019-03-30T21:01:08.062Z,59.08
2019-03-30T21:03:37.523Z,61.10
2019-03-30T21:06:06.531Z,61.95
2019-03-30T21:08:35.089Z,62.73
2019-03-30T21:11:03.617Z,57.20
2019-03-30T21:13:32.222Z,62.62
2019-03-30T21:16:01.054Z,60.63
2019-03-30T21:18:29.505Z,62.95
2019-03-30T21:20:57.985Z,61.88
2019-03-30T21:23:26.647Z,58.20
2019-03-30T21:25:55.573Z,59.23
2019-03-30T21:28:24.363Z,67.47
2019-03-30T21:30:52.852Z,63.87
2019-03-30T21:33:23.234Z,58.20
2019-03-30T21:35:52.060Z,59.53
2019-03-30T21:38:21.130Z,64.22
2019-03-30T21:40:49.628Z,55.03
2019-03-30T21:43:19.828Z,55.48
2019-03-30T21:45:48.532Z,61.95
2019-03-30T21:48:16.994Z,65.67
2019-03-30T21:50:45.447Z,49.40
2019-03-30T21:53:15.201Z,64.95
2019-03-30T21:55:43.653Z,56.92
2019-03-30T21:58:14.110Z,55.17
2019-03-30T22:00:43.097Z,54.70
2019-03-30T22:03:13.998Z,62.05
2019-03-30T22:05:42.452Z,63.90
2019-03-30T22:08:12.534Z,50.88
2019-03-30T22:10:42.124Z,56.70
2019-03-30T22:13:10.717Z,67.70
2019-03-30T22:15:41.025Z,60.40
2019-03-30T22:18:09.473Z,60.95
2019-03-30T22:20:37.960Z,64.37
2019-03-30T22:23:06.822Z,62.78
2019-03-30T22:25:37.989Z,62.67
2019-03-30T22:28:06.739Z,49.03
2019-03-30T22:30:35.543Z,57.73
2019-03-30T22:33:04.128Z,62.58
2019-03-30T22:35:32.722Z,57.55
2019-03-30T22:38:03.851Z,56.23
2019-03-30T22:40:33.516Z,55.25
2019-03-30T22:43:02.118Z,53.98
2019-03-30T22:45:31.983Z,60.03
2019-03-30T22:48:00.450Z,59.63
2019-03-30T22:50:29.308Z,56.73
2019-03-30T22:52:58.060Z,60.17
2019-03-30T22:55:26.958Z,58.00
2019-03-30T22:57:55.420Z,62.35
2019-03-30T23:00:38.625Z,69.15
2019-03-30T23:03:00.038Z,63.15
2019-03-30T23:05:28.791Z,51.23
2019-03-30T23:07:57.658Z,58.13
2019-03-30T23:10:26.112Z,66.07
2019-03-30T23:12:54.870Z,67.70
2019-03-30T23:15:23.340Z,66.10
2019-03-30T23:17:52.218Z,56.37
2019-03-30T23:20:20.987Z,67.60
2019-03-30T23:22:49.704Z,59.08
2019-03-30T23:25:18.471Z,68.05
2019-03-30T23:27:47.018Z,71.85
2019-03-30T23:30:17.313Z,46.83
2019-03-30T23:32:45.808Z,67.15
2019-03-30T23:35:14.390Z,56.10
2019-03-30T23:37:42.951Z,65.40
2019-03-30T23:40:11.651Z,68.25
2019-03-30T23:42:40.434Z,63.68
2019-03-30T23:45:08.980Z,64.58
2019-03-30T23:47:37.716Z,74.90
2019-03-30T23:50:07.842Z,74.40
2019-03-30T23:52:36.369Z,64.12
2019-03-30T23:55:06.294Z,66.97
2019-03-30T23:57:35.146Z,67.32
